sensor_id;sensor_type;location;lat;lon;timestamp;temperature;humidity
43920;DHT22;29578;51.946;5.874;2022-09-06T00:00:55;21.50;59.50
43920;DHT22;29578;51.946;5.874;2022-09-06T00:03:21;21.50;59.60
43920;DHT22;29578;51.946;5.874;2022-09-06T00:05:48;21.50;59.70
43920;DHT22;29578;51.946;5.874;2022-09-06T00:08:13;21.40;59.70
43920;DHT22;29578;51.946;5.874;2022-09-06T00:10:40;21.40;59.80
43920;DHT22;29578;51.946;5.874;2022-09-06T00:13:08;21.50;59.90
43920;DHT22;29578;51.946;5.874;2022-09-06T00:15:36;21.40;60.50
43920;DHT22;29578;51.946;5.874;2022-09-06T00:18:04;21.40;60.00
43920;DHT22;29578;51.946;5.874;2022-09-06T00:20:31;21.40;60.10
43920;DHT22;29578;51.946;5.874;2022-09-06T00:22:58;21.40;60.10
43920;DHT22;29578;51.946;5.874;2022-09-06T00:25:25;21.40;60.20
43920;DHT22;29578;51.946;5.874;2022-09-06T00:27:55;21.40;60.30
43920;DHT22;29578;51.946;5.874;2022-09-06T00:30:20;21.40;60.40
43920;DHT22;29578;51.946;5.874;2022-09-06T00:32:46;21.30;60.40
43920;DHT22;29578;51.946;5.874;2022-09-06T00:35:12;21.40;60.50
43920;DHT22;29578;51.946;5.874;2022-09-06T00:37:38;21.30;60.50
43920;DHT22;29578;51.946;5.874;2022-09-06T00:40:04;21.30;60.50
43920;DHT22;29578;51.946;5.874;2022-09-06T00:42:30;21.30;61.20
43920;DHT22;29578;51.946;5.874;2022-09-06T00:44:56;21.40;60.70
43920;DHT22;29578;51.946;5.874;2022-09-06T00:47:21;21.30;60.70
43920;DHT22;29578;51.946;5.874;2022-09-06T00:49:50;21.30;60.90
43920;DHT22;29578;51.946;5.874;2022-09-06T00:52:18;21.20;60.90
43920;DHT22;29578;51.946;5.874;2022-09-06T00:54:45;21.20;61.10
43920;DHT22;29578;51.946;5.874;2022-09-06T00:57:13;21.20;61.30
43920;DHT22;29578;51.946;5.874;2022-09-06T00:59:40;21.20;61.60
43920;DHT22;29578;51.946;5.874;2022-09-06T01:02:07;21.10;61.80
43920;DHT22;29578;51.946;5.874;2022-09-06T01:04:35;21.10;62.00
43920;DHT22;29578;51.946;5.874;2022-09-06T01:07:22;21.00;62.20
43920;DHT22;29578;51.946;5.874;2022-09-06T01:13:10;20.80;62.90
43920;DHT22;29578;51.946;5.874;2022-09-06T01:15:55;20.80;63.20
43920;DHT22;29578;51.946;5.874;2022-09-06T01:18:37;20.70;63.40
43920;DHT22;29578;51.946;5.874;2022-09-06T01:21:36;20.70;63.60
43920;DHT22;29578;51.946;5.874;2022-09-06T01:24:35;20.60;63.80
43920;DHT22;29578;51.946;5.874;2022-09-06T01:30:06;20.50;64.20
43920;DHT22;29578;51.946;5.874;2022-09-06T01:35:59;20.30;64.90
43920;DHT22;29578;51.946;5.874;2022-09-06T01:38:26;20.20;64.90
43920;DHT22;29578;51.946;5.874;2022-09-06T01:40:52;20.20;65.00
43920;DHT22;29578;51.946;5.874;2022-09-06T01:43:23;20.20;65.20
43920;DHT22;29578;51.946;5.874;2022-09-06T01:46:07;20.20;65.50
43920;DHT22;29578;51.946;5.874;2022-09-06T01:48:46;20.10;65.60
43920;DHT22;29578;51.946;5.874;2022-09-06T01:51:34;20.10;65.70
43920;DHT22;29578;51.946;5.874;2022-09-06T02:02:59;20.00;66.00
43920;DHT22;29578;51.946;5.874;2022-09-06T02:05:38;19.90;66.30
43920;DHT22;29578;51.946;5.874;2022-09-06T02:08:10;19.90;66.70
43920;DHT22;29578;51.946;5.874;2022-09-06T02:10:46;19.80;66.90
43920;DHT22;29578;51.946;5.874;2022-09-06T02:13:14;19.80;67.10
43920;DHT22;29578;51.946;5.874;2022-09-06T02:15:46;19.80;67.20
43920;DHT22;29578;51.946;5.874;2022-09-06T02:18:24;19.80;67.50
43920;DHT22;29578;51.946;5.874;2022-09-06T02:20:55;19.70;67.70
43920;DHT22;29578;51.946;5.874;2022-09-06T02:23:25;19.60;67.70
43920;DHT22;29578;51.946;5.874;2022-09-06T02:25:56;19.60;67.90
43920;DHT22;29578;51.946;5.874;2022-09-06T02:28:24;19.50;68.10
43920;DHT22;29578;51.946;5.874;2022-09-06T02:30:54;19.60;68.30
43920;DHT22;29578;51.946;5.874;2022-09-06T02:33:26;19.60;68.50
43920;DHT22;29578;51.946;5.874;2022-09-06T02:35:54;19.50;68.60
43920;DHT22;29578;51.946;5.874;2022-09-06T02:38:23;19.50;68.80
43920;DHT22;29578;51.946;5.874;2022-09-06T02:40:51;19.50;69.00
43920;DHT22;29578;51.946;5.874;2022-09-06T02:43:18;19.50;69.20
43920;DHT22;29578;51.946;5.874;2022-09-06T02:45:44;19.50;69.30
43920;DHT22;29578;51.946;5.874;2022-09-06T02:48:10;19.30;69.40
43920;DHT22;29578;51.946;5.874;2022-09-06T02:50:36;19.30;69.70
43920;DHT22;29578;51.946;5.874;2022-09-06T02:53:04;19.30;69.80
43920;DHT22;29578;51.946;5.874;2022-09-06T02:55:30;19.30;70.10
43920;DHT22;29578;51.946;5.874;2022-09-06T02:57:56;19.20;70.20
43920;DHT22;29578;51.946;5.874;2022-09-06T03:00:21;19.20;70.40
43920;DHT22;29578;51.946;5.874;2022-09-06T03:02:47;19.20;70.50
43920;DHT22;29578;51.946;5.874;2022-09-06T03:05:13;19.20;70.50
43920;DHT22;29578;51.946;5.874;2022-09-06T03:07:39;19.10;70.60
43920;DHT22;29578;51.946;5.874;2022-09-06T03:10:05;19.20;70.80
43920;DHT22;29578;51.946;5.874;2022-09-06T03:12:30;19.10;70.80
43920;DHT22;29578;51.946;5.874;2022-09-06T03:14:56;19.10;70.90
43920;DHT22;29578;51.946;5.874;2022-09-06T03:17:22;19.10;71.10
43920;DHT22;29578;51.946;5.874;2022-09-06T03:19:48;19.10;71.30
43920;DHT22;29578;51.946;5.874;2022-09-06T03:22:13;19.10;71.30
43920;DHT22;29578;51.946;5.874;2022-09-06T03:24:39;19.10;71.30
43920;DHT22;29578;51.946;5.874;2022-09-06T03:27:05;19.10;71.40
43920;DHT22;29578;51.946;5.874;2022-09-06T03:29:31;19.10;71.40
43920;DHT22;29578;51.946;5.874;2022-09-06T03:31:57;19.20;71.50
43920;DHT22;29578;51.946;5.874;2022-09-06T03:34:22;19.20;71.50
43920;DHT22;29578;51.946;5.874;2022-09-06T03:36:48;19.10;71.50
43920;DHT22;29578;51.946;5.874;2022-09-06T03:39:14;19.10;71.60
43920;DHT22;29578;51.946;5.874;2022-09-06T03:41:39;19.00;71.70
43920;DHT22;29578;51.946;5.874;2022-09-06T03:44:05;19.10;71.90
43920;DHT22;29578;51.946;5.874;2022-09-06T03:46:31;19.10;71.90
43920;DHT22;29578;51.946;5.874;2022-09-06T03:48:57;19.10;72.00
43920;DHT22;29578;51.946;5.874;2022-09-06T03:51:23;19.10;72.00
43920;DHT22;29578;51.946;5.874;2022-09-06T03:53:49;19.10;72.10
43920;DHT22;29578;51.946;5.874;2022-09-06T03:56:15;19.00;72.20
43920;DHT22;29578;51.946;5.874;2022-09-06T03:58:41;19.00;72.40
43920;DHT22;29578;51.946;5.874;2022-09-06T04:01:09;19.00;72.50
43920;DHT22;29578;51.946;5.874;2022-09-06T04:03:36;19.00;72.70
43920;DHT22;29578;51.946;5.874;2022-09-06T04:06:04;19.00;72.90
43920;DHT22;29578;51.946;5.874;2022-09-06T04:08:31;18.90;73.00
43920;DHT22;29578;51.946;5.874;2022-09-06T04:10:57;18.90;73.10
43920;DHT22;29578;51.946;5.874;2022-09-06T04:13:25;19.00;73.20
43920;DHT22;29578;51.946;5.874;2022-09-06T04:15:51;19.00;73.20
43920;DHT22;29578;51.946;5.874;2022-09-06T04:18:18;19.00;73.10
43920;DHT22;29578;51.946;5.874;2022-09-06T04:20:47;19.00;73.10
43920;DHT22;29578;51.946;5.874;2022-09-06T04:23:14;19.00;73.10
43920;DHT22;29578;51.946;5.874;2022-09-06T04:25:40;19.00;73.10
43920;DHT22;29578;51.946;5.874;2022-09-06T04:28:06;19.00;73.20
43920;DHT22;29578;51.946;5.874;2022-09-06T04:30:31;19.00;73.20
43920;DHT22;29578;51.946;5.874;2022-09-06T04:32:57;19.00;73.20
43920;DHT22;29578;51.946;5.874;2022-09-06T04:35:23;19.00;73.30
43920;DHT22;29578;51.946;5.874;2022-09-06T04:37:48;19.00;73.30
43920;DHT22;29578;51.946;5.874;2022-09-06T04:40:14;19.00;73.50
43920;DHT22;29578;51.946;5.874;2022-09-06T04:42:40;19.00;73.60
43920;DHT22;29578;51.946;5.874;2022-09-06T04:45:06;19.00;73.60
43920;DHT22;29578;51.946;5.874;2022-09-06T04:47:32;19.00;73.70
43920;DHT22;29578;51.946;5.874;2022-09-06T04:49:58;19.00;73.70
43920;DHT22;29578;51.946;5.874;2022-09-06T04:52:23;19.00;73.70
43920;DHT22;29578;51.946;5.874;2022-09-06T04:54:49;19.00;73.70
43920;DHT22;29578;51.946;5.874;2022-09-06T04:57:15;19.00;73.70
43920;DHT22;29578;51.946;5.874;2022-09-06T04:59:40;19.00;73.70
43920;DHT22;29578;51.946;5.874;2022-09-06T05:02:06;19.00;73.90
43920;DHT22;29578;51.946;5.874;2022-09-06T05:04:32;19.00;74.00
43920;DHT22;29578;51.946;5.874;2022-09-06T05:07:01;19.00;74.00
43920;DHT22;29578;51.946;5.874;2022-09-06T05:09:27;19.00;74.10
43920;DHT22;29578;51.946;5.874;2022-09-06T05:11:53;18.90;74.10
43920;DHT22;29578;51.946;5.874;2022-09-06T05:14:19;19.00;74.10
43920;DHT22;29578;51.946;5.874;2022-09-06T05:16:45;18.90;74.80
43920;DHT22;29578;51.946;5.874;2022-09-06T05:19:11;18.90;74.20
43920;DHT22;29578;51.946;5.874;2022-09-06T05:21:40;18.90;74.30
43920;DHT22;29578;51.946;5.874;2022-09-06T05:24:05;18.90;74.30
43920;DHT22;29578;51.946;5.874;2022-09-06T05:26:31;18.90;74.40
43920;DHT22;29578;51.946;5.874;2022-09-06T05:28:57;18.90;74.50
43920;DHT22;29578;51.946;5.874;2022-09-06T05:31:26;18.90;74.50
43920;DHT22;29578;51.946;5.874;2022-09-06T05:33:52;18.90;74.60
43920;DHT22;29578;51.946;5.874;2022-09-06T05:36:19;18.80;74.60
43920;DHT22;29578;51.946;5.874;2022-09-06T05:38:45;18.90;74.70
43920;DHT22;29578;51.946;5.874;2022-09-06T05:41:10;18.90;74.80
43920;DHT22;29578;51.946;5.874;2022-09-06T05:43:36;18.80;74.90
43920;DHT22;29578;51.946;5.874;2022-09-06T05:46:02;18.80;75.60
43920;DHT22;29578;51.946;5.874;2022-09-06T05:48:28;18.80;75.00
43920;DHT22;29578;51.946;5.874;2022-09-06T05:51:05;18.90;75.10
43920;DHT22;29578;51.946;5.874;2022-09-06T05:53:40;18.70;75.00
43920;DHT22;29578;51.946;5.874;2022-09-06T05:56:08;18.90;75.10
43920;DHT22;29578;51.946;5.874;2022-09-06T05:58:34;19.00;75.10
43920;DHT22;29578;51.946;5.874;2022-09-06T06:01:04;18.90;75.10
43920;DHT22;29578;51.946;5.874;2022-09-06T06:03:30;18.90;75.10
43920;DHT22;29578;51.946;5.874;2022-09-06T06:05:56;18.80;75.00
43920;DHT22;29578;51.946;5.874;2022-09-06T06:08:21;18.90;75.10
43920;DHT22;29578;51.946;5.874;2022-09-06T06:10:47;18.90;75.10
43920;DHT22;29578;51.946;5.874;2022-09-06T06:13:13;18.80;75.20
43920;DHT22;29578;51.946;5.874;2022-09-06T06:15:39;18.80;75.30
43920;DHT22;29578;51.946;5.874;2022-09-06T06:18:04;18.80;75.40
43920;DHT22;29578;51.946;5.874;2022-09-06T06:20:30;18.70;75.40
43920;DHT22;29578;51.946;5.874;2022-09-06T06:22:56;18.90;75.50
43920;DHT22;29578;51.946;5.874;2022-09-06T06:25:22;18.80;75.40
43920;DHT22;29578;51.946;5.874;2022-09-06T06:27:51;18.80;75.60
43920;DHT22;29578;51.946;5.874;2022-09-06T06:30:17;18.70;75.60
43920;DHT22;29578;51.946;5.874;2022-09-06T06:32:42;18.80;75.70
43920;DHT22;29578;51.946;5.874;2022-09-06T06:35:08;18.80;75.70
43920;DHT22;29578;51.946;5.874;2022-09-06T06:37:34;18.80;75.70
43920;DHT22;29578;51.946;5.874;2022-09-06T06:40:00;18.80;75.70
43920;DHT22;29578;51.946;5.874;2022-09-06T06:42:26;18.80;75.60
43920;DHT22;29578;51.946;5.874;2022-09-06T06:44:52;18.90;75.60
43920;DHT22;29578;51.946;5.874;2022-09-06T06:47:18;18.90;75.60
43920;DHT22;29578;51.946;5.874;2022-09-06T06:49:44;18.90;75.60
43920;DHT22;29578;51.946;5.874;2022-09-06T06:52:10;18.90;75.50
43920;DHT22;29578;51.946;5.874;2022-09-06T06:54:36;18.90;75.50
43920;DHT22;29578;51.946;5.874;2022-09-06T06:57:07;19.00;75.60
43920;DHT22;29578;51.946;5.874;2022-09-06T07:00:11;19.00;75.60
43920;DHT22;29578;51.946;5.874;2022-09-06T07:02:39;19.00;75.60
43920;DHT22;29578;51.946;5.874;2022-09-06T07:05:05;19.00;75.40
43920;DHT22;29578;51.946;5.874;2022-09-06T07:07:34;19.00;75.40
43920;DHT22;29578;51.946;5.874;2022-09-06T07:09:59;19.00;75.50
43920;DHT22;29578;51.946;5.874;2022-09-06T07:12:25;19.00;75.50
43920;DHT22;29578;51.946;5.874;2022-09-06T07:14:52;19.00;75.50
43920;DHT22;29578;51.946;5.874;2022-09-06T07:17:18;19.10;75.50
43920;DHT22;29578;51.946;5.874;2022-09-06T07:19:43;19.10;75.50
43920;DHT22;29578;51.946;5.874;2022-09-06T07:22:09;19.20;75.60
43920;DHT22;29578;51.946;5.874;2022-09-06T07:24:35;19.20;75.60
43920;DHT22;29578;51.946;5.874;2022-09-06T07:27:03;19.10;75.40
43920;DHT22;29578;51.946;5.874;2022-09-06T07:29:29;19.20;75.40
43920;DHT22;29578;51.946;5.874;2022-09-06T07:31:55;19.30;75.40
43920;DHT22;29578;51.946;5.874;2022-09-06T07:34:36;19.30;75.30
43920;DHT22;29578;51.946;5.874;2022-09-06T07:37:07;19.30;75.30
43920;DHT22;29578;51.946;5.874;2022-09-06T07:39:35;19.40;75.40
43920;DHT22;29578;51.946;5.874;2022-09-06T07:42:04;19.40;75.40
43920;DHT22;29578;51.946;5.874;2022-09-06T07:44:37;19.40;75.30
43920;DHT22;29578;51.946;5.874;2022-09-06T07:47:03;19.50;75.20
43920;DHT22;29578;51.946;5.874;2022-09-06T07:49:34;19.50;75.10
43920;DHT22;29578;51.946;5.874;2022-09-06T07:52:03;19.50;75.00
43920;DHT22;29578;51.946;5.874;2022-09-06T07:54:29;19.60;75.00
43920;DHT22;29578;51.946;5.874;2022-09-06T07:56:55;19.70;75.00
43920;DHT22;29578;51.946;5.874;2022-09-06T07:59:23;19.70;74.90
43920;DHT22;29578;51.946;5.874;2022-09-06T08:01:51;19.80;74.90
43920;DHT22;29578;51.946;5.874;2022-09-06T08:04:19;20.00;74.80
43920;DHT22;29578;51.946;5.874;2022-09-06T08:06:47;20.10;74.50
43920;DHT22;29578;51.946;5.874;2022-09-06T08:09:25;20.10;74.20
43920;DHT22;29578;51.946;5.874;2022-09-06T08:11:53;20.30;73.80
43920;DHT22;29578;51.946;5.874;2022-09-06T08:14:27;20.40;73.60
43920;DHT22;29578;51.946;5.874;2022-09-06T08:16:58;20.50;73.30
43920;DHT22;29578;51.946;5.874;2022-09-06T08:19:44;20.70;73.20
43920;DHT22;29578;51.946;5.874;2022-09-06T08:22:09;20.80;72.90
43920;DHT22;29578;51.946;5.874;2022-09-06T08:24:35;21.00;72.70
43920;DHT22;29578;51.946;5.874;2022-09-06T08:27:02;21.10;72.60
43920;DHT22;29578;51.946;5.874;2022-09-06T08:29:28;21.20;72.30
43920;DHT22;29578;51.946;5.874;2022-09-06T08:31:54;21.40;72.10
43920;DHT22;29578;51.946;5.874;2022-09-06T08:34:19;21.60;71.90
43920;DHT22;29578;51.946;5.874;2022-09-06T08:36:45;21.60;71.80
43920;DHT22;29578;51.946;5.874;2022-09-06T08:39:11;21.70;71.50
43920;DHT22;29578;51.946;5.874;2022-09-06T08:41:52;21.80;71.40
43920;DHT22;29578;51.946;5.874;2022-09-06T08:44:23;21.90;71.20
43920;DHT22;29578;51.946;5.874;2022-09-06T08:47:01;22.10;71.00
43920;DHT22;29578;51.946;5.874;2022-09-06T08:49:32;22.10;70.80
43920;DHT22;29578;51.946;5.874;2022-09-06T08:55:06;22.40;70.60
43920;DHT22;29578;51.946;5.874;2022-09-06T09:00:44;22.50;70.10
43920;DHT22;29578;51.946;5.874;2022-09-06T09:03:43;22.70;70.00
43920;DHT22;29578;51.946;5.874;2022-09-06T09:06:09;22.90;69.80
43920;DHT22;29578;51.946;5.874;2022-09-06T09:08:51;22.90;69.40
43920;DHT22;29578;51.946;5.874;2022-09-06T09:11:26;23.20;69.20
43920;DHT22;29578;51.946;5.874;2022-09-06T09:14:02;23.30;68.90
43920;DHT22;29578;51.946;5.874;2022-09-06T09:16:29;23.50;68.70
43920;DHT22;29578;51.946;5.874;2022-09-06T09:18:58;23.50;68.60
43920;DHT22;29578;51.946;5.874;2022-09-06T09:21:25;23.50;68.50
43920;DHT22;29578;51.946;5.874;2022-09-06T09:23:54;23.50;68.60
43920;DHT22;29578;51.946;5.874;2022-09-06T09:26:25;23.60;68.50
43920;DHT22;29578;51.946;5.874;2022-09-06T09:29:06;23.70;68.40
43920;DHT22;29578;51.946;5.874;2022-09-06T09:31:38;23.70;68.20
43920;DHT22;29578;51.946;5.874;2022-09-06T09:34:13;23.70;68.00
43920;DHT22;29578;51.946;5.874;2022-09-06T09:37:10;23.90;67.70
43920;DHT22;29578;51.946;5.874;2022-09-06T09:39:38;23.90;67.60
43920;DHT22;29578;51.946;5.874;2022-09-06T09:42:06;23.90;67.50
43920;DHT22;29578;51.946;5.874;2022-09-06T09:44:33;24.00;67.40
43920;DHT22;29578;51.946;5.874;2022-09-06T09:46:58;24.10;67.20
43920;DHT22;29578;51.946;5.874;2022-09-06T09:49:29;24.10;66.90
43920;DHT22;29578;51.946;5.874;2022-09-06T09:52:10;24.10;66.60
43920;DHT22;29578;51.946;5.874;2022-09-06T09:54:39;24.20;66.50
43920;DHT22;29578;51.946;5.874;2022-09-06T09:57:09;24.10;66.40
43920;DHT22;29578;51.946;5.874;2022-09-06T09:59:42;24.10;66.30
43920;DHT22;29578;51.946;5.874;2022-09-06T10:02:26;24.10;66.40
43920;DHT22;29578;51.946;5.874;2022-09-06T10:05:00;24.10;66.30
43920;DHT22;29578;51.946;5.874;2022-09-06T10:07:26;24.30;66.20
43920;DHT22;29578;51.946;5.874;2022-09-06T10:09:59;24.20;66.10
43920;DHT22;29578;51.946;5.874;2022-09-06T10:12:28;24.30;66.00
43920;DHT22;29578;51.946;5.874;2022-09-06T10:14:54;24.30;65.90
43920;DHT22;29578;51.946;5.874;2022-09-06T10:17:31;24.40;65.80
43920;DHT22;29578;51.946;5.874;2022-09-06T10:20:04;24.20;65.50
43920;DHT22;29578;51.946;5.874;2022-09-06T10:22:56;24.40;65.40
43920;DHT22;29578;51.946;5.874;2022-09-06T10:25:44;24.40;65.10
43920;DHT22;29578;51.946;5.874;2022-09-06T10:28:32;24.40;65.00
43920;DHT22;29578;51.946;5.874;2022-09-06T10:37:13;24.40;64.50
43920;DHT22;29578;51.946;5.874;2022-09-06T10:39:56;24.50;64.30
43920;DHT22;29578;51.946;5.874;2022-09-06T10:42:38;24.60;64.20
43920;DHT22;29578;51.946;5.874;2022-09-06T10:45:26;24.60;64.00
43920;DHT22;29578;51.946;5.874;2022-09-06T10:47:58;24.50;63.90
43920;DHT22;29578;51.946;5.874;2022-09-06T10:50:35;24.60;63.70
43920;DHT22;29578;51.946;5.874;2022-09-06T10:53:11;24.70;63.50
43920;DHT22;29578;51.946;5.874;2022-09-06T10:55:39;24.70;63.30
43920;DHT22;29578;51.946;5.874;2022-09-06T10:58:06;24.80;63.20
43920;DHT22;29578;51.946;5.874;2022-09-06T11:00:41;24.80;63.20
43920;DHT22;29578;51.946;5.874;2022-09-06T11:03:17;24.80;63.10
43920;DHT22;29578;51.946;5.874;2022-09-06T11:05:51;24.90;63.10
43920;DHT22;29578;51.946;5.874;2022-09-06T11:11:17;25.00;62.60
43920;DHT22;29578;51.946;5.874;2022-09-06T11:13:53;25.10;62.30
43920;DHT22;29578;51.946;5.874;2022-09-06T11:16:59;25.10;62.10
43920;DHT22;29578;51.946;5.874;2022-09-06T11:19:56;25.30;61.90
43920;DHT22;29578;51.946;5.874;2022-09-06T11:22:48;25.40;61.50
43920;DHT22;29578;51.946;5.874;2022-09-06T11:28:16;25.70;61.20
43920;DHT22;29578;51.946;5.874;2022-09-06T11:31:03;25.70;60.90
43920;DHT22;29578;51.946;5.874;2022-09-06T11:33:31;25.80;60.70
43920;DHT22;29578;51.946;5.874;2022-09-06T11:36:17;25.90;60.50
43920;DHT22;29578;51.946;5.874;2022-09-06T11:38:55;26.00;60.20
43920;DHT22;29578;51.946;5.874;2022-09-06T11:41:34;26.10;60.10
43920;DHT22;29578;51.946;5.874;2022-09-06T11:47:04;26.30;60.00
43920;DHT22;29578;51.946;5.874;2022-09-06T11:49:34;26.40;59.80
43920;DHT22;29578;51.946;5.874;2022-09-06T11:52:55;26.40;59.80
43920;DHT22;29578;51.946;5.874;2022-09-06T11:55:03;26.40;59.80
43920;DHT22;29578;51.946;5.874;2022-09-06T11:57:41;26.50;59.80
43920;DHT22;29578;51.946;5.874;2022-09-06T12:00:21;26.50;59.50
43920;DHT22;29578;51.946;5.874;2022-09-06T12:02:49;26.70;59.40
43920;DHT22;29578;51.946;5.874;2022-09-06T12:05:24;26.80;59.30
43920;DHT22;29578;51.946;5.874;2022-09-06T12:08:12;26.90;59.10
43920;DHT22;29578;51.946;5.874;2022-09-06T12:11:01;27.00;59.00
43920;DHT22;29578;51.946;5.874;2022-09-06T12:13:46;27.00;58.80
43920;DHT22;29578;51.946;5.874;2022-09-06T12:25:48;27.10;58.80
43920;DHT22;29578;51.946;5.874;2022-09-06T12:28:05;27.10;58.70
43920;DHT22;29578;51.946;5.874;2022-09-06T12:30:38;27.30;58.70
43920;DHT22;29578;51.946;5.874;2022-09-06T12:33:08;27.40;58.40
43920;DHT22;29578;51.946;5.874;2022-09-06T12:35:35;27.40;58.40
43920;DHT22;29578;51.946;5.874;2022-09-06T12:38:03;27.30;58.50
43920;DHT22;29578;51.946;5.874;2022-09-06T12:40:34;27.30;58.60
43920;DHT22;29578;51.946;5.874;2022-09-06T12:43:02;27.40;58.60
43920;DHT22;29578;51.946;5.874;2022-09-06T12:45:29;27.40;58.40
43920;DHT22;29578;51.946;5.874;2022-09-06T12:51:18;27.40;58.40
43920;DHT22;29578;51.946;5.874;2022-09-06T12:54:22;27.30;58.30
43920;DHT22;29578;51.946;5.874;2022-09-06T12:57:12;27.20;58.60
43920;DHT22;29578;51.946;5.874;2022-09-06T12:59:57;27.30;58.60
43920;DHT22;29578;51.946;5.874;2022-09-06T13:02:39;27.40;58.50
43920;DHT22;29578;51.946;5.874;2022-09-06T13:05:39;27.40;58.40
43920;DHT22;29578;51.946;5.874;2022-09-06T13:08:23;27.40;58.30
43920;DHT22;29578;51.946;5.874;2022-09-06T13:10:55;27.50;58.30
43920;DHT22;29578;51.946;5.874;2022-09-06T13:13:27;27.40;58.30
43920;DHT22;29578;51.946;5.874;2022-09-06T13:16:24;27.40;58.30
43920;DHT22;29578;51.946;5.874;2022-09-06T13:18:50;27.30;58.50
43920;DHT22;29578;51.946;5.874;2022-09-06T13:21:44;27.30;58.50
43920;DHT22;29578;51.946;5.874;2022-09-06T13:43:27;27.20;58.20
43920;DHT22;29578;51.946;5.874;2022-09-06T14:00:43;27.10;57.90
43920;DHT22;29578;51.946;5.874;2022-09-06T14:03:40;27.00;57.80
43920;DHT22;29578;51.946;5.874;2022-09-06T14:06:59;27.10;57.80
43920;DHT22;29578;51.946;5.874;2022-09-06T14:09:32;27.10;57.60
43920;DHT22;29578;51.946;5.874;2022-09-06T14:12:10;27.10;57.40
43920;DHT22;29578;51.946;5.874;2022-09-06T14:14:39;27.20;57.40
43920;DHT22;29578;51.946;5.874;2022-09-06T14:17:21;27.10;57.40
43920;DHT22;29578;51.946;5.874;2022-09-06T14:19:47;27.10;57.50
43920;DHT22;29578;51.946;5.874;2022-09-06T14:22:13;27.20;57.40
43920;DHT22;29578;51.946;5.874;2022-09-06T14:24:39;27.10;57.20
43920;DHT22;29578;51.946;5.874;2022-09-06T14:27:05;27.00;57.20
43920;DHT22;29578;51.946;5.874;2022-09-06T14:29:32;27.00;57.20
43920;DHT22;29578;51.946;5.874;2022-09-06T14:31:59;27.00;57.20
43920;DHT22;29578;51.946;5.874;2022-09-06T14:34:24;26.90;57.10
43920;DHT22;29578;51.946;5.874;2022-09-06T14:36:50;27.00;57.10
43920;DHT22;29578;51.946;5.874;2022-09-06T14:39:19;27.00;56.90
43920;DHT22;29578;51.946;5.874;2022-09-06T14:41:45;27.00;56.80
43920;DHT22;29578;51.946;5.874;2022-09-06T14:44:11;27.20;56.60
43920;DHT22;29578;51.946;5.874;2022-09-06T14:46:37;27.10;56.40
43920;DHT22;29578;51.946;5.874;2022-09-06T14:49:10;27.10;56.20
43920;DHT22;29578;51.946;5.874;2022-09-06T14:51:36;27.10;56.00
43920;DHT22;29578;51.946;5.874;2022-09-06T14:54:11;27.10;55.90
43920;DHT22;29578;51.946;5.874;2022-09-06T14:56:58;27.10;55.80
43920;DHT22;29578;51.946;5.874;2022-09-06T14:59:30;27.10;55.80
43920;DHT22;29578;51.946;5.874;2022-09-06T15:02:02;27.10;55.70
43920;DHT22;29578;51.946;5.874;2022-09-06T15:11:31;27.20;55.40
43920;DHT22;29578;51.946;5.874;2022-09-06T15:14:46;27.20;55.40
43920;DHT22;29578;51.946;5.874;2022-09-06T15:17:19;27.20;55.40
43920;DHT22;29578;51.946;5.874;2022-09-06T15:20:31;27.10;55.40
43920;DHT22;29578;51.946;5.874;2022-09-06T15:23:14;27.20;55.30
43920;DHT22;29578;51.946;5.874;2022-09-06T15:25:51;27.20;55.30
43920;DHT22;29578;51.946;5.874;2022-09-06T15:31:27;27.20;55.20
43920;DHT22;29578;51.946;5.874;2022-09-06T15:34:27;27.00;55.10
43920;DHT22;29578;51.946;5.874;2022-09-06T15:37:01;27.10;55.20
43920;DHT22;29578;51.946;5.874;2022-09-06T15:39:26;27.10;55.20
43920;DHT22;29578;51.946;5.874;2022-09-06T15:41:55;27.20;55.20
43920;DHT22;29578;51.946;5.874;2022-09-06T15:44:22;27.10;55.00
43920;DHT22;29578;51.946;5.874;2022-09-06T15:46:51;27.10;54.80
43920;DHT22;29578;51.946;5.874;2022-09-06T15:49:28;27.20;54.80
43920;DHT22;29578;51.946;5.874;2022-09-06T15:51:57;27.10;54.60
43920;DHT22;29578;51.946;5.874;2022-09-06T15:54:25;27.20;54.70
43920;DHT22;29578;51.946;5.874;2022-09-06T15:57:12;27.00;54.60
43920;DHT22;29578;51.946;5.874;2022-09-06T15:59:39;27.00;54.70
43920;DHT22;29578;51.946;5.874;2022-09-06T16:02:06;27.00;54.90
43920;DHT22;29578;51.946;5.874;2022-09-06T16:04:31;27.00;54.90
43920;DHT22;29578;51.946;5.874;2022-09-06T16:06:57;27.00;54.90
43920;DHT22;29578;51.946;5.874;2022-09-06T16:09:23;27.00;54.90
43920;DHT22;29578;51.946;5.874;2022-09-06T16:11:49;26.90;54.80
43920;DHT22;29578;51.946;5.874;2022-09-06T16:14:15;26.90;54.90
43920;DHT22;29578;51.946;5.874;2022-09-06T16:16:42;26.70;54.90
43920;DHT22;29578;51.946;5.874;2022-09-06T16:19:09;26.70;55.00
43920;DHT22;29578;51.946;5.874;2022-09-06T16:21:37;26.70;55.20
43920;DHT22;29578;51.946;5.874;2022-09-06T16:24:05;26.60;55.20
43920;DHT22;29578;51.946;5.874;2022-09-06T16:26:34;26.60;55.20
43920;DHT22;29578;51.946;5.874;2022-09-06T16:29:01;26.60;55.30
43920;DHT22;29578;51.946;5.874;2022-09-06T16:31:28;26.60;55.30
43920;DHT22;29578;51.946;5.874;2022-09-06T16:33:55;26.60;55.40
43920;DHT22;29578;51.946;5.874;2022-09-06T16:36:21;26.60;55.40
43920;DHT22;29578;51.946;5.874;2022-09-06T16:38:48;26.60;55.40
43920;DHT22;29578;51.946;5.874;2022-09-06T16:41:18;26.50;55.30
43920;DHT22;29578;51.946;5.874;2022-09-06T16:43:45;26.50;55.40
43920;DHT22;29578;51.946;5.874;2022-09-06T16:46:14;26.40;55.40
43920;DHT22;29578;51.946;5.874;2022-09-06T16:48:40;26.40;55.50
43920;DHT22;29578;51.946;5.874;2022-09-06T16:51:09;26.30;55.60
43920;DHT22;29578;51.946;5.874;2022-09-06T16:53:38;26.20;55.80
43920;DHT22;29578;51.946;5.874;2022-09-06T16:56:04;26.10;55.90
43920;DHT22;29578;51.946;5.874;2022-09-06T16:58:30;26.10;56.10
43920;DHT22;29578;51.946;5.874;2022-09-06T17:00:56;26.00;56.30
43920;DHT22;29578;51.946;5.874;2022-09-06T17:03:21;25.90;56.40
43920;DHT22;29578;51.946;5.874;2022-09-06T17:05:49;25.90;56.60
43920;DHT22;29578;51.946;5.874;2022-09-06T17:08:15;25.80;56.70
43920;DHT22;29578;51.946;5.874;2022-09-06T17:10:41;25.80;56.80
43920;DHT22;29578;51.946;5.874;2022-09-06T17:13:08;25.70;56.90
43920;DHT22;29578;51.946;5.874;2022-09-06T17:15:34;25.60;56.90
43920;DHT22;29578;51.946;5.874;2022-09-06T17:18:15;25.60;57.00
43920;DHT22;29578;51.946;5.874;2022-09-06T17:20:55;25.60;57.10
43920;DHT22;29578;51.946;5.874;2022-09-06T17:23:21;25.50;57.10
43920;DHT22;29578;51.946;5.874;2022-09-06T17:25:47;25.50;57.20
43920;DHT22;29578;51.946;5.874;2022-09-06T17:28:12;25.50;57.30
43920;DHT22;29578;51.946;5.874;2022-09-06T17:30:38;25.40;57.30